MiSS Sylvia — WDE5412 — position and weather

sailwx.info

Track history (hours):
 
Tides and Currents Weather Stations Pressure Air Temp Water Temp Dewpoint Dewpoint Depression Visibility Wind Speed Wind Dir Waves Ship Positions

MiSS Sylvia

Owner: DOUBLE J MARINE, LLC, LAPLACE, LA. More information available from US FCC via Universal Licensing System and Coast Guard Vessel Documentation Center.

Last reported at 2016-Jun-25 23:25 UTC. Time now 2016-Jun-26 01:04 UTC.
Position N 29°58' W 090°14'.

Length 20 m; draft 2.7 m.

Type: Towing. MMSI: 367366340.

Date/timePositionNaut miles runAvg speedWind from/ knotsBaromVisibWave heightAir tempDewpointWater temp
2016-Jun-25 23:25N 29°58' W 090°14'3 3.3
2016-Jun-25 22:33N 29°56' W 090°11'2 2.4
2016-Jun-25 21:33N 29°56' W 090°08'4 3.8
2016-Jun-25 20:33N 29°55' W 090°04'3 2.8
2016-Jun-25 19:33N 29°57' W 090°01'1 1.3
2016-Jun-25 18:33N 29°57' W 090°02'5 5.1
2016-Jun-25 17:33N 29°54' W 090°07'0 0.3
2016-Jun-25 16:33N 29°54' W 090°07'4 3.6
2016-Jun-25 15:32N 29°56' W 090°11'1 0.0
2016-Jun-24 02:09N 29°55' W 090°12'2 3.3
2016-Jun-24 01:33N 29°56' W 090°11'1 1.2
2016-Jun-24 00:33N 29°57' W 090°09'0 0.1
2016-Jun-23 23:33N 29°57' W 090°09'1 0.2
2016-Jun-23 17:33N 29°56' W 090°10'1 1.4
2016-Jun-23 16:33N 29°57' W 090°09'3 2.8
2016-Jun-23 15:33N 29°56' W 090°11'3 0.2
2016-Jun-22 21:16N 29°58' W 090°14'3 4.0
2016-Jun-22 20:33N 29°56' W 090°11'2 2.1
2016-Jun-22 19:33N 29°57' W 090°09'10 3.4
2016-Jun-22 16:33N 29°55' W 089°57'5 2.7
2016-Jun-22 14:33N 29°50' W 089°59'6 5.0
2016-Jun-22 13:26N 29°45' W 090°01'0 0.0
2016-Jun-22 05:31N 29°45' W 090°01'6 5.9
2016-Jun-22 04:33N 29°50' W 089°59'5 4.3
2016-Jun-22 03:28N 29°52' W 089°54'16 0.4
2016-Jun-20 11:07N 29°56' W 090°13'2 2.8
2016-Jun-20 10:27N 29°56' W 090°11'2 2.1
2016-Jun-20 09:33N 29°57' W 090°09'0 0.0
2016-Jun-20 08:33N 29°57' W 090°09'0 0.0
2016-Jun-20 07:33N 29°57' W 090°09'0 0.0
2016-Jun-20 06:33N 29°57' W 090°09'3 2.6
2016-Jun-20 05:33N 29°55' W 090°07'3 3.3
2016-Jun-20 04:33N 29°57' W 090°04'3 3.1
2016-Jun-20 03:33N 29°56' W 090°00'3 2.8
2016-Jun-20 02:33N 29°55' W 089°57'2 1.9
2016-Jun-20 01:33N 29°55' W 089°55'3 2.7
2016-Jun-20 00:32N 29°52' W 089°56'2 2.5
2016-Jun-19 23:33N 29°51' W 089°58'4 4.1
2016-Jun-19 22:33N 29°48' W 090°00'0 0.0
2016-Jun-19 13:33N 29°48' W 090°01'6 5.7
2016-Jun-19 12:33N 29°53' W 089°58'3 3.4
2016-Jun-19 11:33N 29°54' W 089°55'6 5.7
2016-Jun-19 10:33N 29°57' W 090°00'4 4.1
2016-Jun-19 09:33N 29°55' W 090°05'4 3.5
2016-Jun-19 08:33N 29°57' W 090°08'12 1.9
2016-Jun-19 02:33N 29°56' W 090°22'  
2016-Jun-16 04:33N 29°60' W 090°27'  
Track history (hours):
 
Tides and Currents Weather Stations Pressure Air Temp Water Temp Dewpoint Dewpoint Depression Visibility Wind Speed Wind Dir Waves Ship Positions

MiSS Sylvia

Owner: DOUBLE J MARINE, LLC, LAPLACE, LA. More information available from US FCC via Universal Licensing System and Coast Guard Vessel Documentation Center.

Last reported at 2016-Jun-25 23:25 UTC. Time now 2016-Jun-26 01:04 UTC.
Position N 29°58' W 090°14'.

Length 20 m; draft 2.7 m.

Type: Towing. MMSI: 367366340.

Date/timePositionNaut miles runAvg speedWind from/ knotsBaromVisibWave heightAir tempDewpointWater temp
2016-Jun-25 23:25N 29°58' W 090°14'3 3.3
2016-Jun-25 22:33N 29°56' W 090°11'2 2.4
2016-Jun-25 21:33N 29°56' W 090°08'4 3.8
2016-Jun-25 20:33N 29°55' W 090°04'3 2.8
2016-Jun-25 19:33N 29°57' W 090°01'1 1.3
2016-Jun-25 18:33N 29°57' W 090°02'5 5.1
2016-Jun-25 17:33N 29°54' W 090°07'0 0.3
2016-Jun-25 16:33N 29°54' W 090°07'4 3.6
2016-Jun-25 15:32N 29°56' W 090°11'1 0.0
2016-Jun-24 02:09N 29°55' W 090°12'2 3.3
2016-Jun-24 01:33N 29°56' W 090°11'1 1.2
2016-Jun-24 00:33N 29°57' W 090°09'0 0.1
2016-Jun-23 23:33N 29°57' W 090°09'1 0.2
2016-Jun-23 17:33N 29°56' W 090°10'1 1.4
2016-Jun-23 16:33N 29°57' W 090°09'3 2.8
2016-Jun-23 15:33N 29°56' W 090°11'3 0.2
2016-Jun-22 21:16N 29°58' W 090°14'3 4.0
2016-Jun-22 20:33N 29°56' W 090°11'2 2.1
2016-Jun-22 19:33N 29°57' W 090°09'10 3.4
2016-Jun-22 16:33N 29°55' W 089°57'5 2.7
2016-Jun-22 14:33N 29°50' W 089°59'6 5.0
2016-Jun-22 13:26N 29°45' W 090°01'0 0.0
2016-Jun-22 05:31N 29°45' W 090°01'6 5.9
2016-Jun-22 04:33N 29°50' W 089°59'5 4.3
2016-Jun-22 03:28N 29°52' W 089°54'16 0.4
2016-Jun-20 11:07N 29°56' W 090°13'2 2.8
2016-Jun-20 10:27N 29°56' W 090°11'2 2.1
2016-Jun-20 09:33N 29°57' W 090°09'0 0.0
2016-Jun-20 08:33N 29°57' W 090°09'0 0.0
2016-Jun-20 07:33N 29°57' W 090°09'0 0.0
2016-Jun-20 06:33N 29°57' W 090°09'3 2.6
2016-Jun-20 05:33N 29°55' W 090°07'3 3.3
2016-Jun-20 04:33N 29°57' W 090°04'3 3.1
2016-Jun-20 03:33N 29°56' W 090°00'3 2.8
2016-Jun-20 02:33N 29°55' W 089°57'2 1.9
2016-Jun-20 01:33N 29°55' W 089°55'3 2.7
2016-Jun-20 00:32N 29°52' W 089°56'2 2.5
2016-Jun-19 23:33N 29°51' W 089°58'4 4.1
2016-Jun-19 22:33N 29°48' W 090°00'0 0.0
2016-Jun-19 13:33N 29°48' W 090°01'6 5.7
2016-Jun-19 12:33N 29°53' W 089°58'3 3.4
2016-Jun-19 11:33N 29°54' W 089°55'6 5.7
2016-Jun-19 10:33N 29°57' W 090°00'4 4.1
2016-Jun-19 09:33N 29°55' W 090°05'4 3.5
2016-Jun-19 08:33N 29°57' W 090°08'12 1.9
2016-Jun-19 02:33N 29°56' W 090°22'  
2016-Jun-16 04:33N 29°60' W 090°27'  

Dump ship's entire track history